sensor_id;sensor_type;location;lat;lon;timestamp;pressure;altitude;pressure_sealevel;temperature
69420;BMP280;56612;52.030;113.524;2022-09-25T00:00:48;92845.78;;;7.45
69420;BMP280;56612;52.030;113.524;2022-09-25T00:03:52;92838.28;;;7.38
69420;BMP280;56612;52.030;113.524;2022-09-25T00:06:56;92844.94;;;7.39
69420;BMP280;56612;52.030;113.524;2022-09-25T00:09:59;92837.56;;;7.35
69420;BMP280;56612;52.030;113.524;2022-09-25T00:13:03;92835.59;;;7.66
69420;BMP280;56612;52.030;113.524;2022-09-25T00:16:10;92839.75;;;7.75
69420;BMP280;56612;52.030;113.524;2022-09-25T00:19:19;92846.47;;;8.10
69420;BMP280;56612;52.030;113.524;2022-09-25T00:22:42;92848.84;;;8.30
69420;BMP280;56612;52.030;113.524;2022-09-25T00:25:52;92845.25;;;8.51
69420;BMP280;56612;52.030;113.524;2022-09-25T00:28:56;92852.41;;;8.42
69420;BMP280;56612;52.030;113.524;2022-09-25T00:32:04;92849.78;;;8.44
69420;BMP280;56612;52.030;113.524;2022-09-25T00:35:08;92853.47;;;8.65
69420;BMP280;56612;52.030;113.524;2022-09-25T00:38:12;92856.44;;;8.45
69420;BMP280;56612;52.030;113.524;2022-09-25T00:41:18;92851.34;;;8.21
69420;BMP280;56612;52.030;113.524;2022-09-25T00:48:04;92851.03;;;7.73
69420;BMP280;56612;52.030;113.524;2022-09-25T00:51:09;92861.47;;;7.35
69420;BMP280;56612;52.030;113.524;2022-09-25T00:54:16;92861.81;;;7.19
69420;BMP280;56612;52.030;113.524;2022-09-25T00:57:24;92861.81;;;7.19
69420;BMP280;56612;52.030;113.524;2022-09-25T01:00:29;92871.31;;;7.28
69420;BMP280;56612;52.030;113.524;2022-09-25T01:03:35;92871.59;;;7.13
69420;BMP280;56612;52.030;113.524;2022-09-25T01:06:39;92867.25;;;7.25
69420;BMP280;56612;52.030;113.524;2022-09-25T01:09:45;92867.91;;;7.26
69420;BMP280;56612;52.030;113.524;2022-09-25T01:12:50;92873.19;;;7.24
69420;BMP280;56612;52.030;113.524;2022-09-25T01:16:19;92866.72;;;7.31
69420;BMP280;56612;52.030;113.524;2022-09-25T01:26:55;92874.50;;;7.51
69420;BMP280;56612;52.030;113.524;2022-09-25T01:33:16;92880.47;;;7.81
69420;BMP280;56612;52.030;113.524;2022-09-25T01:36:27;92876.19;;;8.00
69420;BMP280;56612;52.030;113.524;2022-09-25T01:39:40;92861.94;;;8.19
69420;BMP280;56612;52.030;113.524;2022-09-25T01:42:53;92884.25;;;8.74
69420;BMP280;56612;52.030;113.524;2022-09-25T01:46:01;92874.41;;;9.21
69420;BMP280;56612;52.030;113.524;2022-09-25T01:49:32;92867.09;;;9.23
69420;BMP280;56612;52.030;113.524;2022-09-25T01:52:42;92873.03;;;8.78
69420;BMP280;56612;52.030;113.524;2022-09-25T01:55:51;92865.47;;;8.30
69420;BMP280;56612;52.030;113.524;2022-09-25T01:59:00;92876.25;;;8.02
69420;BMP280;56612;52.030;113.524;2022-09-25T02:02:09;92867.47;;;7.95
69420;BMP280;56612;52.030;113.524;2022-09-25T02:05:30;92866.16;;;7.97
69420;BMP280;56612;52.030;113.524;2022-09-25T02:08:50;92878.69;;;8.24
69420;BMP280;56612;52.030;113.524;2022-09-25T02:11:59;92867.28;;;8.55
69420;BMP280;56612;52.030;113.524;2022-09-25T02:15:31;92865.00;;;8.40
69420;BMP280;56612;52.030;113.524;2022-09-25T02:18:30;92861.19;;;8.49
69420;BMP280;56612;52.030;113.524;2022-09-25T02:22:15;92862.38;;;8.42
69420;BMP280;56612;52.030;113.524;2022-09-25T02:25:34;92873.50;;;8.32
69420;BMP280;56612;52.030;113.524;2022-09-25T02:28:39;92871.63;;;8.39
69420;BMP280;56612;52.030;113.524;2022-09-25T02:31:47;92870.44;;;8.46
69420;BMP280;56612;52.030;113.524;2022-09-25T02:34:51;92872.75;;;8.64
69420;BMP280;56612;52.030;113.524;2022-09-25T02:37:55;92870.63;;;8.56
69420;BMP280;56612;52.030;113.524;2022-09-25T02:54:30;92885.78;;;8.47
69420;BMP280;56612;52.030;113.524;2022-09-25T03:00:52;92890.13;;;8.31
69420;BMP280;56612;52.030;113.524;2022-09-25T03:03:58;92890.84;;;8.01
69420;BMP280;56612;52.030;113.524;2022-09-25T03:07:03;92889.13;;;8.14
69420;BMP280;56612;52.030;113.524;2022-09-25T03:10:07;92889.75;;;8.12
69420;BMP280;56612;52.030;113.524;2022-09-25T03:13:25;92888.19;;;8.01
69420;BMP280;56612;52.030;113.524;2022-09-25T03:19:42;92893.13;;;8.15
69420;BMP280;56612;52.030;113.524;2022-09-25T03:22:47;92905.28;;;8.24
69420;BMP280;56612;52.030;113.524;2022-09-25T03:25:54;92899.50;;;8.34
69420;BMP280;56612;52.030;113.524;2022-09-25T03:28:58;92899.97;;;8.24
69420;BMP280;56612;52.030;113.524;2022-09-25T03:32:03;92882.88;;;8.35
69420;BMP280;56612;52.030;113.524;2022-09-25T03:35:08;92891.00;;;8.41
69420;BMP280;56612;52.030;113.524;2022-09-25T03:38:11;92900.41;;;8.46
69420;BMP280;56612;52.030;113.524;2022-09-25T03:41:16;92899.94;;;8.56
69420;BMP280;56612;52.030;113.524;2022-09-25T03:44:21;92907.59;;;8.40
69420;BMP280;56612;52.030;113.524;2022-09-25T03:47:24;92908.47;;;8.50
69420;BMP280;56612;52.030;113.524;2022-09-25T03:50:28;92896.63;;;8.57
69420;BMP280;56612;52.030;113.524;2022-09-25T03:53:32;92887.16;;;8.50
69420;BMP280;56612;52.030;113.524;2022-09-25T03:56:35;92898.66;;;8.59
69420;BMP280;56612;52.030;113.524;2022-09-25T03:59:40;92900.06;;;8.64
69420;BMP280;56612;52.030;113.524;2022-09-25T04:02:43;92894.56;;;8.54
69420;BMP280;56612;52.030;113.524;2022-09-25T04:05:46;92900.63;;;8.58
69420;BMP280;56612;52.030;113.524;2022-09-25T04:08:51;92911.31;;;8.60
69420;BMP280;56612;52.030;113.524;2022-09-25T04:11:54;92900.13;;;8.66
69420;BMP280;56612;52.030;113.524;2022-09-25T04:14:57;92896.97;;;8.76
69420;BMP280;56612;52.030;113.524;2022-09-25T04:18:00;92899.31;;;8.59
69420;BMP280;56612;52.030;113.524;2022-09-25T04:21:09;92904.56;;;8.55
69420;BMP280;56612;52.030;113.524;2022-09-25T04:24:13;92902.44;;;8.48
69420;BMP280;56612;52.030;113.524;2022-09-25T04:27:35;92900.69;;;8.60
69420;BMP280;56612;52.030;113.524;2022-09-25T04:30:39;92889.66;;;8.76
69420;BMP280;56612;52.030;113.524;2022-09-25T04:33:42;92900.19;;;8.70
69420;BMP280;56612;52.030;113.524;2022-09-25T04:36:49;92885.09;;;8.83
69420;BMP280;56612;52.030;113.524;2022-09-25T04:39:56;92879.94;;;8.93
69420;BMP280;56612;52.030;113.524;2022-09-25T04:43:02;92881.81;;;8.86
69420;BMP280;56612;52.030;113.524;2022-09-25T04:46:07;92880.13;;;8.65
69420;BMP280;56612;52.030;113.524;2022-09-25T04:49:12;92884.94;;;8.75
69420;BMP280;56612;52.030;113.524;2022-09-25T04:52:16;92891.00;;;8.77
69420;BMP280;56612;52.030;113.524;2022-09-25T04:55:21;92891.94;;;8.94
69420;BMP280;56612;52.030;113.524;2022-09-25T04:58:26;92903.06;;;8.82
69420;BMP280;56612;52.030;113.524;2022-09-25T05:01:29;92883.34;;;8.98
69420;BMP280;56612;52.030;113.524;2022-09-25T05:04:32;92892.69;;;8.99
69420;BMP280;56612;52.030;113.524;2022-09-25T05:07:36;92898.09;;;9.03
69420;BMP280;56612;52.030;113.524;2022-09-25T05:10:39;92888.75;;;9.04
69420;BMP280;56612;52.030;113.524;2022-09-25T05:13:43;92882.75;;;9.01
69420;BMP280;56612;52.030;113.524;2022-09-25T05:16:48;92885.50;;;9.07
69420;BMP280;56612;52.030;113.524;2022-09-25T05:19:52;92896.63;;;8.96
69420;BMP280;56612;52.030;113.524;2022-09-25T05:22:56;92886.09;;;9.04
69420;BMP280;56612;52.030;113.524;2022-09-25T05:26:00;92896.50;;;9.28
69420;BMP280;56612;52.030;113.524;2022-09-25T05:29:04;92895.34;;;9.39
69420;BMP280;56612;52.030;113.524;2022-09-25T05:32:08;92897.56;;;9.54
69420;BMP280;56612;52.030;113.524;2022-09-25T05:35:12;92891.75;;;9.66
69420;BMP280;56612;52.030;113.524;2022-09-25T05:38:16;92886.50;;;9.72
69420;BMP280;56612;52.030;113.524;2022-09-25T05:41:20;92890.94;;;9.57
69420;BMP280;56612;52.030;113.524;2022-09-25T05:44:24;92888.94;;;9.56
69420;BMP280;56612;52.030;113.524;2022-09-25T05:47:30;92893.72;;;9.64
69420;BMP280;56612;52.030;113.524;2022-09-25T05:50:34;92878.66;;;9.86
69420;BMP280;56612;52.030;113.524;2022-09-25T05:53:38;92887.88;;;10.30
69420;BMP280;56612;52.030;113.524;2022-09-25T05:56:42;92895.97;;;10.38
69420;BMP280;56612;52.030;113.524;2022-09-25T05:59:45;92880.91;;;10.65
69420;BMP280;56612;52.030;113.524;2022-09-25T06:02:51;92886.97;;;10.71
69420;BMP280;56612;52.030;113.524;2022-09-25T06:05:58;92888.16;;;10.52
69420;BMP280;56612;52.030;113.524;2022-09-25T06:09:02;92882.41;;;10.17
69420;BMP280;56612;52.030;113.524;2022-09-25T06:12:05;92891.63;;;10.08
69420;BMP280;56612;52.030;113.524;2022-09-25T06:15:10;92890.81;;;9.98
69420;BMP280;56612;52.030;113.524;2022-09-25T06:18:14;92908.38;;;10.11
69420;BMP280;56612;52.030;113.524;2022-09-25T06:21:18;92899.22;;;10.28
69420;BMP280;56612;52.030;113.524;2022-09-25T06:24:22;92901.94;;;10.32
69420;BMP280;56612;52.030;113.524;2022-09-25T06:27:26;92906.00;;;10.37
69420;BMP280;56612;52.030;113.524;2022-09-25T06:30:33;92903.41;;;10.43
69420;BMP280;56612;52.030;113.524;2022-09-25T06:33:37;92909.44;;;10.44
69420;BMP280;56612;52.030;113.524;2022-09-25T06:36:40;92934.59;;;10.29
69420;BMP280;56612;52.030;113.524;2022-09-25T06:39:44;92953.53;;;9.97
69420;BMP280;56612;52.030;113.524;2022-09-25T06:42:54;92968.19;;;9.49
69420;BMP280;56612;52.030;113.524;2022-09-25T06:46:01;92965.19;;;8.91
69420;BMP280;56612;52.030;113.524;2022-09-25T06:49:05;92981.50;;;8.73
69420;BMP280;56612;52.030;113.524;2022-09-25T06:52:08;92976.00;;;8.65
69420;BMP280;56612;52.030;113.524;2022-09-25T06:55:11;92974.81;;;8.72
69420;BMP280;56612;52.030;113.524;2022-09-25T06:58:23;92971.19;;;8.91
69420;BMP280;56612;52.030;113.524;2022-09-25T07:01:28;92969.38;;;9.40
69420;BMP280;56612;52.030;113.524;2022-09-25T07:04:31;92972.72;;;10.31
69420;BMP280;56612;52.030;113.524;2022-09-25T07:07:35;92965.81;;;10.70
69420;BMP280;56612;52.030;113.524;2022-09-25T07:10:39;92962.69;;;10.90
69420;BMP280;56612;52.030;113.524;2022-09-25T07:13:47;92961.81;;;11.42
69420;BMP280;56612;52.030;113.524;2022-09-25T07:16:57;92962.66;;;11.63
69420;BMP280;56612;52.030;113.524;2022-09-25T07:20:00;92971.44;;;10.97
69420;BMP280;56612;52.030;113.524;2022-09-25T07:23:04;92970.31;;;10.53
69420;BMP280;56612;52.030;113.524;2022-09-25T07:26:13;92978.34;;;10.55
69420;BMP280;56612;52.030;113.524;2022-09-25T07:29:18;92985.00;;;10.52
69420;BMP280;56612;52.030;113.524;2022-09-25T07:32:21;92986.34;;;10.53
69420;BMP280;56612;52.030;113.524;2022-09-25T07:35:24;92984.16;;;10.40
69420;BMP280;56612;52.030;113.524;2022-09-25T07:38:29;92986.34;;;10.53
69420;BMP280;56612;52.030;113.524;2022-09-25T07:41:32;92985.69;;;10.55
69420;BMP280;56612;52.030;113.524;2022-09-25T07:44:36;92989.91;;;10.72
69420;BMP280;56612;52.030;113.524;2022-09-25T07:47:40;92996.03;;;11.51
69420;BMP280;56612;52.030;113.524;2022-09-25T07:50:44;92996.69;;;12.57
69420;BMP280;56612;52.030;113.524;2022-09-25T07:53:48;92996.81;;;14.35
69420;BMP280;56612;52.030;113.524;2022-09-25T07:56:52;92992.13;;;14.22
69420;BMP280;56612;52.030;113.524;2022-09-25T07:59:55;93010.97;;;14.12
69420;BMP280;56612;52.030;113.524;2022-09-25T08:02:58;93007.19;;;15.15
69420;BMP280;56612;52.030;113.524;2022-09-25T08:06:07;93022.28;;;17.43
69420;BMP280;56612;52.030;113.524;2022-09-25T08:09:15;93027.41;;;21.13
69420;BMP280;56612;52.030;113.524;2022-09-25T08:12:18;93011.56;;;18.87
69420;BMP280;56612;52.030;113.524;2022-09-25T08:15:22;93016.22;;;15.68
69420;BMP280;56612;52.030;113.524;2022-09-25T08:18:25;93020.41;;;13.70
69420;BMP280;56612;52.030;113.524;2022-09-25T08:21:29;93006.19;;;12.82
69420;BMP280;56612;52.030;113.524;2022-09-25T08:24:33;93017.91;;;12.14
69420;BMP280;56612;52.030;113.524;2022-09-25T08:27:36;93014.47;;;12.02
69420;BMP280;56612;52.030;113.524;2022-09-25T08:30:43;93005.56;;;11.73
69420;BMP280;56612;52.030;113.524;2022-09-25T08:33:48;93011.59;;;11.69
69420;BMP280;56612;52.030;113.524;2022-09-25T08:36:52;93011.50;;;11.63
69420;BMP280;56612;52.030;113.524;2022-09-25T08:39:56;93008.75;;;11.51
69420;BMP280;56612;52.030;113.524;2022-09-25T08:42:59;93018.75;;;11.48
69420;BMP280;56612;52.030;113.524;2022-09-25T08:46:04;93015.22;;;11.27
69420;BMP280;56612;52.030;113.524;2022-09-25T08:49:32;93015.22;;;11.27
69420;BMP280;56612;52.030;113.524;2022-09-25T08:52:40;93030.06;;;11.39
69420;BMP280;56612;52.030;113.524;2022-09-25T08:55:47;93015.16;;;12.04
69420;BMP280;56612;52.030;113.524;2022-09-25T08:59:29;93025.84;;;12.00
69420;BMP280;56612;52.030;113.524;2022-09-25T09:02:42;93034.78;;;15.15
69420;BMP280;56612;52.030;113.524;2022-09-25T09:05:59;93036.91;;;18.73
69420;BMP280;56612;52.030;113.524;2022-09-25T09:09:21;93035.97;;;20.02
69420;BMP280;56612;52.030;113.524;2022-09-25T09:12:40;93032.13;;;20.67
69420;BMP280;56612;52.030;113.524;2022-09-25T09:16:06;93036.22;;;21.14
69420;BMP280;56612;52.030;113.524;2022-09-25T09:19:11;93035.00;;;19.58
69420;BMP280;56612;52.030;113.524;2022-09-25T09:22:21;93026.69;;;17.64
69420;BMP280;56612;52.030;113.524;2022-09-25T09:25:46;93027.91;;;15.36
69420;BMP280;56612;52.030;113.524;2022-09-25T09:32:39;93034.44;;;13.12
69420;BMP280;56612;52.030;113.524;2022-09-25T09:36:06;93040.19;;;12.45
69420;BMP280;56612;52.030;113.524;2022-09-25T09:53:02;93073.16;;;11.05
69420;BMP280;56612;52.030;113.524;2022-09-25T09:56:15;93071.59;;;10.85
69420;BMP280;56612;52.030;113.524;2022-09-25T09:59:29;93065.31;;;10.65
69420;BMP280;56612;52.030;113.524;2022-09-25T10:02:42;93075.09;;;10.48
69420;BMP280;56612;52.030;113.524;2022-09-25T10:05:49;93067.94;;;10.14
69420;BMP280;56612;52.030;113.524;2022-09-25T10:08:53;93067.59;;;9.94
69420;BMP280;56612;52.030;113.524;2022-09-25T10:12:04;93064.16;;;9.85
69420;BMP280;56612;52.030;113.524;2022-09-25T10:15:27;93066.66;;;9.75
69420;BMP280;56612;52.030;113.524;2022-09-25T10:22:01;93066.91;;;9.51
69420;BMP280;56612;52.030;113.524;2022-09-25T10:25:06;93076.09;;;9.44
69420;BMP280;56612;52.030;113.524;2022-09-25T10:28:31;93087.22;;;9.31
69420;BMP280;56612;52.030;113.524;2022-09-25T10:31:39;93073.53;;;9.14
69420;BMP280;56612;52.030;113.524;2022-09-25T10:34:50;93078.19;;;9.12
69420;BMP280;56612;52.030;113.524;2022-09-25T10:37:57;93082.84;;;9.13
69420;BMP280;56612;52.030;113.524;2022-09-25T10:47:31;93086.31;;;8.86
69420;BMP280;56612;52.030;113.524;2022-09-25T10:51:07;93083.56;;;8.82
69420;BMP280;56612;52.030;113.524;2022-09-25T10:54:15;93105.44;;;8.76
69420;BMP280;56612;52.030;113.524;2022-09-25T10:57:45;93094.69;;;8.72
69420;BMP280;56612;52.030;113.524;2022-09-25T11:03:55;93093.03;;;8.57
69420;BMP280;56612;52.030;113.524;2022-09-25T11:07:03;93096.28;;;8.53
69420;BMP280;56612;52.030;113.524;2022-09-25T11:10:19;93095.38;;;8.43
69420;BMP280;56612;52.030;113.524;2022-09-25T11:13:32;93095.28;;;8.39
69420;BMP280;56612;52.030;113.524;2022-09-25T11:16:48;93091.94;;;8.38
69420;BMP280;56612;52.030;113.524;2022-09-25T11:20:18;93093.13;;;8.31
69420;BMP280;56612;52.030;113.524;2022-09-25T11:23:42;93097.13;;;8.32
69420;BMP280;56612;52.030;113.524;2022-09-25T11:27:16;93096.94;;;8.24
69420;BMP280;56612;52.030;113.524;2022-09-25T11:30:22;93101.72;;;8.30
69420;BMP280;56612;52.030;113.524;2022-09-25T11:33:41;93098.34;;;8.27
69420;BMP280;56612;52.030;113.524;2022-09-25T11:36:59;93094.91;;;8.22
69420;BMP280;56612;52.030;113.524;2022-09-25T11:44:04;93105.38;;;8.14
69420;BMP280;56612;52.030;113.524;2022-09-25T11:50:35;93102.72;;;8.14
69420;BMP280;56612;52.030;113.524;2022-09-25T11:53:57;93098.66;;;8.11
69420;BMP280;56612;52.030;113.524;2022-09-25T12:10:33;93096.19;;;7.91
69420;BMP280;56612;52.030;113.524;2022-09-25T12:14:00;93104.69;;;7.86
69420;BMP280;56612;52.030;113.524;2022-09-25T12:21:03;93092.59;;;7.81
69420;BMP280;56612;52.030;113.524;2022-09-25T12:24:41;93092.59;;;7.81
69420;BMP280;56612;52.030;113.524;2022-09-25T12:34:53;93093.25;;;7.81
69420;BMP280;56612;52.030;113.524;2022-09-25T12:38:07;93088.53;;;7.80
69420;BMP280;56612;52.030;113.524;2022-09-25T12:44:38;93095.94;;;7.81
69420;BMP280;56612;52.030;113.524;2022-09-25T12:58:09;93088.00;;;7.83
69420;BMP280;56612;52.030;113.524;2022-09-25T13:01:24;93093.16;;;7.77
69420;BMP280;56612;52.030;113.524;2022-09-25T13:04:42;93088.41;;;7.74
69420;BMP280;56612;52.030;113.524;2022-09-25T13:08:03;93093.84;;;7.78
69420;BMP280;56612;52.030;113.524;2022-09-25T13:14:38;93099.06;;;7.74
69420;BMP280;56612;52.030;113.524;2022-09-25T13:17:44;93096.94;;;7.70
69420;BMP280;56612;52.030;113.524;2022-09-25T13:20:48;93093.00;;;7.71
69420;BMP280;56612;52.030;113.524;2022-09-25T13:23:52;93077.59;;;7.66
69420;BMP280;56612;52.030;113.524;2022-09-25T13:26:59;93075.50;;;7.62
69420;BMP280;56612;52.030;113.524;2022-09-25T13:30:06;93083.34;;;7.58
69420;BMP280;56612;52.030;113.524;2022-09-25T13:33:18;93086.06;;;7.60
69420;BMP280;56612;52.030;113.524;2022-09-25T13:39:48;93079.13;;;7.49
69420;BMP280;56612;52.030;113.524;2022-09-25T13:43:24;93078.88;;;7.39
69420;BMP280;56612;52.030;113.524;2022-09-25T13:46:29;93081.38;;;7.33
69420;BMP280;56612;52.030;113.524;2022-09-25T13:49:36;93083.19;;;7.26
69420;BMP280;56612;52.030;113.524;2022-09-25T14:02:43;93062.06;;;7.06
69420;BMP280;56612;52.030;113.524;2022-09-25T14:05:48;93058.47;;;6.97
69420;BMP280;56612;52.030;113.524;2022-09-25T14:08:56;93064.34;;;6.92
69420;BMP280;56612;52.030;113.524;2022-09-25T14:18:21;93078.03;;;6.60
69420;BMP280;56612;52.030;113.524;2022-09-25T14:21:27;93078.50;;;5.89
69420;BMP280;56612;52.030;113.524;2022-09-25T14:24:31;93078.22;;;5.81
69420;BMP280;56612;52.030;113.524;2022-09-25T14:27:34;93078.66;;;5.74
69420;BMP280;56612;52.030;113.524;2022-09-25T14:30:38;93070.47;;;5.87
69420;BMP280;56612;52.030;113.524;2022-09-25T14:47:37;93034.41;;;6.00
69420;BMP280;56612;52.030;113.524;2022-09-25T14:50:50;93032.75;;;6.11
69420;BMP280;56612;52.030;113.524;2022-09-25T14:53:57;93026.88;;;6.14
69420;BMP280;56612;52.030;113.524;2022-09-25T14:57:01;93023.25;;;6.25
69420;BMP280;56612;52.030;113.524;2022-09-25T15:00:15;93022.16;;;6.34
69420;BMP280;56612;52.030;113.524;2022-09-25T15:03:25;93018.41;;;6.42
69420;BMP280;56612;52.030;113.524;2022-09-25T15:06:34;93032.09;;;6.34
69420;BMP280;56612;52.030;113.524;2022-09-25T15:09:45;93034.84;;;6.36
69420;BMP280;56612;52.030;113.524;2022-09-25T15:12:50;93037.28;;;6.52
69420;BMP280;56612;52.030;113.524;2022-09-25T15:15:56;93040.19;;;6.60
69420;BMP280;56612;52.030;113.524;2022-09-25T15:19:20;93046.38;;;6.23
69420;BMP280;56612;52.030;113.524;2022-09-25T15:22:36;93041.81;;;6.03
69420;BMP280;56612;52.030;113.524;2022-09-25T15:25:45;93049.59;;;5.97
69420;BMP280;56612;52.030;113.524;2022-09-25T15:28:49;93038.72;;;5.89
69420;BMP280;56612;52.030;113.524;2022-09-25T15:31:53;93044.25;;;5.76
69420;BMP280;56612;52.030;113.524;2022-09-25T15:38:18;93043.00;;;5.79
69420;BMP280;56612;52.030;113.524;2022-09-25T15:41:22;93029.19;;;5.82
69420;BMP280;56612;52.030;113.524;2022-09-25T15:44:25;93037.09;;;5.80
69420;BMP280;56612;52.030;113.524;2022-09-25T15:50:42;93031.78;;;5.80
69420;BMP280;56612;52.030;113.524;2022-09-25T15:56:59;93035.09;;;6.00
69420;BMP280;56612;52.030;113.524;2022-09-25T16:00:07;93031.00;;;6.19
69420;BMP280;56612;52.030;113.524;2022-09-25T16:03:30;93034.06;;;6.31
69420;BMP280;56612;52.030;113.524;2022-09-25T16:06:51;93058.97;;;6.00
69420;BMP280;56612;52.030;113.524;2022-09-25T16:13:23;93036.84;;;5.72
69420;BMP280;56612;52.030;113.524;2022-09-25T16:16:28;93052.63;;;5.68
69420;BMP280;56612;52.030;113.524;2022-09-25T16:19:33;93036.88;;;5.32
69420;BMP280;56612;52.030;113.524;2022-09-25T16:22:40;93047.19;;;5.44
69420;BMP280;56612;52.030;113.524;2022-09-25T16:25:48;93038.63;;;5.65
69420;BMP280;56612;52.030;113.524;2022-09-25T16:32:10;93050.91;;;5.77
69420;BMP280;56612;52.030;113.524;2022-09-25T16:35:32;93045.47;;;5.72
69420;BMP280;56612;52.030;113.524;2022-09-25T16:39:22;93039.38;;;5.90
69420;BMP280;56612;52.030;113.524;2022-09-25T16:42:31;93049.28;;;5.87
69420;BMP280;56612;52.030;113.524;2022-09-25T16:45:56;93045.84;;;5.43
69420;BMP280;56612;52.030;113.524;2022-09-25T16:49:00;93039.19;;;5.42
69420;BMP280;56612;52.030;113.524;2022-09-25T16:52:06;93041.47;;;5.52
69420;BMP280;56612;52.030;113.524;2022-09-25T16:55:21;93038.59;;;5.44
69420;BMP280;56612;52.030;113.524;2022-09-25T16:58:26;93039.66;;;5.36
69420;BMP280;56612;52.030;113.524;2022-09-25T17:01:29;93040.09;;;5.51
69420;BMP280;56612;52.030;113.524;2022-09-25T17:04:35;93036.25;;;5.54
69420;BMP280;56612;52.030;113.524;2022-09-25T17:07:40;93021.78;;;5.57
69420;BMP280;56612;52.030;113.524;2022-09-25T17:10:46;93033.59;;;5.74
69420;BMP280;56612;52.030;113.524;2022-09-25T17:13:53;93035.28;;;5.85
69420;BMP280;56612;52.030;113.524;2022-09-25T17:16:57;93045.50;;;5.94
69420;BMP280;56612;52.030;113.524;2022-09-25T17:20:01;93039.34;;;6.10
69420;BMP280;56612;52.030;113.524;2022-09-25T17:23:05;93042.91;;;6.18
69420;BMP280;56612;52.030;113.524;2022-09-25T17:26:22;93042.56;;;6.28
69420;BMP280;56612;52.030;113.524;2022-09-25T17:29:27;93050.31;;;6.22
69420;BMP280;56612;52.030;113.524;2022-09-25T17:32:31;93061.47;;;6.16
69420;BMP280;56612;52.030;113.524;2022-09-25T17:39:01;93075.22;;;5.91
69420;BMP280;56612;52.030;113.524;2022-09-25T17:42:06;93070.56;;;5.69
69420;BMP280;56612;52.030;113.524;2022-09-25T17:45:24;93077.97;;;5.73
69420;BMP280;56612;52.030;113.524;2022-09-25T17:48:30;93082.16;;;5.60
69420;BMP280;56612;52.030;113.524;2022-09-25T17:51:34;93084.25;;;5.42
69420;BMP280;56612;52.030;113.524;2022-09-25T17:54:38;93088.91;;;5.24
69420;BMP280;56612;52.030;113.524;2022-09-25T17:57:42;93084.03;;;5.18
69420;BMP280;56612;52.030;113.524;2022-09-25T18:00:47;93083.22;;;5.14
69420;BMP280;56612;52.030;113.524;2022-09-25T18:03:56;93089.06;;;5.10
69420;BMP280;56612;52.030;113.524;2022-09-25T18:07:00;93092.19;;;5.04
69420;BMP280;56612;52.030;113.524;2022-09-25T18:10:05;93085.34;;;4.99
69420;BMP280;56612;52.030;113.524;2022-09-25T18:13:15;93084.69;;;4.99
69420;BMP280;56612;52.030;113.524;2022-09-25T18:16:30;93085.00;;;4.89
69420;BMP280;56612;52.030;113.524;2022-09-25T18:19:35;93088.94;;;4.88
69420;BMP280;56612;52.030;113.524;2022-09-25T18:22:57;93081.97;;;4.79
69420;BMP280;56612;52.030;113.524;2022-09-25T18:26:06;93087.69;;;4.71
69420;BMP280;56612;52.030;113.524;2022-09-25T18:29:15;93089.03;;;4.72
69420;BMP280;56612;52.030;113.524;2022-09-25T18:32:20;93089.72;;;4.55
69420;BMP280;56612;52.030;113.524;2022-09-25T18:35:24;93084.78;;;4.65
69420;BMP280;56612;52.030;113.524;2022-09-25T18:38:28;93088.78;;;4.66
69420;BMP280;56612;52.030;113.524;2022-09-25T18:41:38;93090.25;;;4.69
69420;BMP280;56612;52.030;113.524;2022-09-25T18:44:42;93093.34;;;4.64
69420;BMP280;56612;52.030;113.524;2022-09-25T18:47:46;93094.41;;;4.57
69420;BMP280;56612;52.030;113.524;2022-09-25T18:50:51;93086.31;;;4.53
69420;BMP280;56612;52.030;113.524;2022-09-25T18:53:54;93084.19;;;4.49
69420;BMP280;56612;52.030;113.524;2022-09-25T18:56:59;93086.38;;;4.55
69420;BMP280;56612;52.030;113.524;2022-09-25T19:00:03;93078.38;;;4.53
69420;BMP280;56612;52.030;113.524;2022-09-25T19:03:07;93075.72;;;4.53
69420;BMP280;56612;52.030;113.524;2022-09-25T19:06:11;93074.13;;;4.45
69420;BMP280;56612;52.030;113.524;2022-09-25T19:09:18;93073.66;;;4.33
69420;BMP280;56612;52.030;113.524;2022-09-25T19:12:24;93077.97;;;4.42
69420;BMP280;56612;52.030;113.524;2022-09-25T19:15:28;93066.84;;;4.46
69420;BMP280;56612;52.030;113.524;2022-09-25T19:18:32;93078.13;;;4.46
69420;BMP280;56612;52.030;113.524;2022-09-25T19:21:36;93077.91;;;4.40
69420;BMP280;56612;52.030;113.524;2022-09-25T19:24:43;93075.19;;;4.38
69420;BMP280;56612;52.030;113.524;2022-09-25T19:27:48;93073.50;;;4.29
69420;BMP280;56612;52.030;113.524;2022-09-25T19:31:22;93072.69;;;4.42
69420;BMP280;56612;52.030;113.524;2022-09-25T19:34:26;93071.63;;;4.32
69420;BMP280;56612;52.030;113.524;2022-09-25T19:37:29;93068.91;;;4.30
69420;BMP280;56612;52.030;113.524;2022-09-25T19:40:37;93063.09;;;4.33
69420;BMP280;56612;52.030;113.524;2022-09-25T19:43:42;93056.44;;;4.32
69420;BMP280;56612;52.030;113.524;2022-09-25T19:46:46;93056.34;;;4.30
69420;BMP280;56612;52.030;113.524;2022-09-25T19:49:50;93068.91;;;4.30
69420;BMP280;56612;52.030;113.524;2022-09-25T19:52:55;93071.88;;;4.38
69420;BMP280;56612;52.030;113.524;2022-09-25T19:55:58;93064.59;;;4.38
69420;BMP280;56612;52.030;113.524;2022-09-25T19:59:03;93060.59;;;4.37
69420;BMP280;56612;52.030;113.524;2022-09-25T20:02:09;93059.31;;;4.38
69420;BMP280;56612;52.030;113.524;2022-09-25T20:05:13;93056.00;;;4.38
69420;BMP280;56612;52.030;113.524;2022-09-25T20:08:19;93063.47;;;4.43
69420;BMP280;56612;52.030;113.524;2022-09-25T20:11:24;93055.59;;;4.45
69420;BMP280;56612;52.030;113.524;2022-09-25T20:14:27;93056.94;;;4.46
69420;BMP280;56612;52.030;113.524;2022-09-25T20:17:31;93065.56;;;4.47
69420;BMP280;56612;52.030;113.524;2022-09-25T20:20:35;93051.75;;;4.48
69420;BMP280;56612;52.030;113.524;2022-09-25T20:23:40;93060.53;;;4.53
69420;BMP280;56612;52.030;113.524;2022-09-25T20:26:43;93060.53;;;4.53
69420;BMP280;56612;52.030;113.524;2022-09-25T20:29:47;93071.88;;;4.56
69420;BMP280;56612;52.030;113.524;2022-09-25T20:32:51;93067.84;;;4.55